sensor_id;sensor_type;location;lat;lon;timestamp;P1;durP1;ratioP1;P2;durP2;ratioP2
76795;SDS011;65745;50.278;18.192;2023-11-19T00:02:18;99.60;;;49.20;;
76795;SDS011;65745;50.278;18.192;2023-11-19T00:04:51;104.10;;;53.40;;
76795;SDS011;65745;50.278;18.192;2023-11-19T00:07:23;97.60;;;49.30;;
76795;SDS011;65745;50.278;18.192;2023-11-19T00:10:04;88.80;;;46.20;;
76795;SDS011;65745;50.278;18.192;2023-11-19T00:12:39;90.80;;;44.40;;
76795;SDS011;65745;50.278;18.192;2023-11-19T00:15:14;90.30;;;44.60;;
76795;SDS011;65745;50.278;18.192;2023-11-19T00:17:48;87.20;;;47.00;;
76795;SDS011;65745;50.278;18.192;2023-11-19T00:20:20;99.80;;;47.30;;
76795;SDS011;65745;50.278;18.192;2023-11-19T00:22:52;98.30;;;49.00;;
76795;SDS011;65745;50.278;18.192;2023-11-19T00:25:24;97.40;;;48.70;;
76795;SDS011;65745;50.278;18.192;2023-11-19T00:27:56;94.00;;;46.20;;
76795;SDS011;65745;50.278;18.192;2023-11-19T00:30:29;89.90;;;44.90;;
76795;SDS011;65745;50.278;18.192;2023-11-19T00:33:01;78.50;;;44.30;;
76795;SDS011;65745;50.278;18.192;2023-11-19T00:35:34;79.90;;;41.10;;
76795;SDS011;65745;50.278;18.192;2023-11-19T00:38:06;74.30;;;40.00;;
76795;SDS011;65745;50.278;18.192;2023-11-19T00:40:38;70.40;;;39.10;;
76795;SDS011;65745;50.278;18.192;2023-11-19T00:43:10;80.60;;;41.00;;
76795;SDS011;65745;50.278;18.192;2023-11-19T00:45:42;76.30;;;40.50;;
76795;SDS011;65745;50.278;18.192;2023-11-19T00:48:14;64.00;;;37.50;;
76795;SDS011;65745;50.278;18.192;2023-11-19T00:50:47;72.00;;;40.10;;
76795;SDS011;65745;50.278;18.192;2023-11-19T00:53:19;79.80;;;44.50;;
76795;SDS011;65745;50.278;18.192;2023-11-19T00:55:51;74.40;;;41.30;;
76795;SDS011;65745;50.278;18.192;2023-11-19T00:58:23;73.40;;;40.60;;
76795;SDS011;65745;50.278;18.192;2023-11-19T01:00:56;64.80;;;38.30;;
76795;SDS011;65745;50.278;18.192;2023-11-19T01:03:29;57.00;;;31.90;;
76795;SDS011;65745;50.278;18.192;2023-11-19T01:06:02;59.60;;;34.50;;
76795;SDS011;65745;50.278;18.192;2023-11-19T01:08:35;61.70;;;35.50;;
76795;SDS011;65745;50.278;18.192;2023-11-19T01:11:08;51.00;;;28.50;;
76795;SDS011;65745;50.278;18.192;2023-11-19T01:13:51;45.90;;;26.70;;
76795;SDS011;65745;50.278;18.192;2023-11-19T01:16:23;50.10;;;27.90;;
76795;SDS011;65745;50.278;18.192;2023-11-19T01:18:56;42.20;;;24.90;;
76795;SDS011;65745;50.278;18.192;2023-11-19T01:21:45;46.70;;;28.00;;
76795;SDS011;65745;50.278;18.192;2023-11-19T01:24:17;44.50;;;26.50;;
76795;SDS011;65745;50.278;18.192;2023-11-19T01:26:50;46.20;;;27.80;;
76795;SDS011;65745;50.278;18.192;2023-11-19T01:29:22;47.60;;;27.10;;
76795;SDS011;65745;50.278;18.192;2023-11-19T01:31:54;46.80;;;28.80;;
76795;SDS011;65745;50.278;18.192;2023-11-19T01:34:26;51.90;;;29.40;;
76795;SDS011;65745;50.278;18.192;2023-11-19T01:36:58;51.50;;;29.90;;
76795;SDS011;65745;50.278;18.192;2023-11-19T01:39:30;56.60;;;33.30;;
76795;SDS011;65745;50.278;18.192;2023-11-19T01:42:03;66.00;;;33.80;;
76795;SDS011;65745;50.278;18.192;2023-11-19T01:44:35;65.00;;;35.50;;
76795;SDS011;65745;50.278;18.192;2023-11-19T01:47:07;75.30;;;35.00;;
76795;SDS011;65745;50.278;18.192;2023-11-19T01:49:40;71.00;;;39.90;;
76795;SDS011;65745;50.278;18.192;2023-11-19T01:52:12;70.10;;;35.30;;
76795;SDS011;65745;50.278;18.192;2023-11-19T01:54:44;74.60;;;38.60;;
76795;SDS011;65745;50.278;18.192;2023-11-19T01:57:16;76.90;;;39.20;;
76795;SDS011;65745;50.278;18.192;2023-11-19T01:59:49;65.60;;;37.40;;
76795;SDS011;65745;50.278;18.192;2023-11-19T02:02:22;71.70;;;37.10;;
76795;SDS011;65745;50.278;18.192;2023-11-19T02:04:56;72.70;;;36.90;;
76795;SDS011;65745;50.278;18.192;2023-11-19T02:07:29;72.60;;;38.20;;
76795;SDS011;65745;50.278;18.192;2023-11-19T02:10:02;66.40;;;35.40;;
76795;SDS011;65745;50.278;18.192;2023-11-19T02:12:34;71.00;;;38.20;;
76795;SDS011;65745;50.278;18.192;2023-11-19T02:15:07;62.80;;;32.30;;
76795;SDS011;65745;50.278;18.192;2023-11-19T02:17:40;63.20;;;33.60;;
76795;SDS011;65745;50.278;18.192;2023-11-19T02:20:12;63.00;;;35.70;;
76795;SDS011;65745;50.278;18.192;2023-11-19T02:22:44;64.80;;;34.60;;
76795;SDS011;65745;50.278;18.192;2023-11-19T02:25:19;59.40;;;33.90;;
76795;SDS011;65745;50.278;18.192;2023-11-19T02:27:58;74.50;;;39.60;;
76795;SDS011;65745;50.278;18.192;2023-11-19T02:30:31;71.50;;;36.60;;
76795;SDS011;65745;50.278;18.192;2023-11-19T02:33:03;65.40;;;35.20;;
76795;SDS011;65745;50.278;18.192;2023-11-19T02:35:35;64.50;;;33.50;;
76795;SDS011;65745;50.278;18.192;2023-11-19T02:38:09;68.80;;;35.90;;
76795;SDS011;65745;50.278;18.192;2023-11-19T02:40:43;66.70;;;36.10;;
76795;SDS011;65745;50.278;18.192;2023-11-19T02:43:15;68.60;;;38.50;;
76795;SDS011;65745;50.278;18.192;2023-11-19T02:45:47;70.20;;;37.50;;
76795;SDS011;65745;50.278;18.192;2023-11-19T02:48:19;72.90;;;37.90;;
76795;SDS011;65745;50.278;18.192;2023-11-19T02:50:51;72.40;;;36.60;;
76795;SDS011;65745;50.278;18.192;2023-11-19T02:53:23;62.80;;;36.90;;
76795;SDS011;65745;50.278;18.192;2023-11-19T02:55:58;67.50;;;37.80;;
76795;SDS011;65745;50.278;18.192;2023-11-19T02:58:38;60.60;;;30.50;;
76795;SDS011;65745;50.278;18.192;2023-11-19T03:01:11;59.70;;;33.70;;
76795;SDS011;65745;50.278;18.192;2023-11-19T03:03:52;65.40;;;35.50;;
76795;SDS011;65745;50.278;18.192;2023-11-19T03:06:26;67.20;;;34.70;;
76795;SDS011;65745;50.278;18.192;2023-11-19T03:08:59;57.20;;;32.90;;
76795;SDS011;65745;50.278;18.192;2023-11-19T03:11:35;64.60;;;35.20;;
76795;SDS011;65745;50.278;18.192;2023-11-19T03:14:07;72.30;;;35.70;;
76795;SDS011;65745;50.278;18.192;2023-11-19T03:16:40;59.70;;;32.80;;
76795;SDS011;65745;50.278;18.192;2023-11-19T03:19:15;69.40;;;32.70;;
76795;SDS011;65745;50.278;18.192;2023-11-19T03:21:51;65.40;;;33.90;;
76795;SDS011;65745;50.278;18.192;2023-11-19T03:24:23;70.40;;;33.90;;
76795;SDS011;65745;50.278;18.192;2023-11-19T03:26:55;69.30;;;37.50;;
76795;SDS011;65745;50.278;18.192;2023-11-19T03:29:27;71.20;;;38.00;;
76795;SDS011;65745;50.278;18.192;2023-11-19T03:31:59;70.60;;;37.80;;
76795;SDS011;65745;50.278;18.192;2023-11-19T03:34:31;64.50;;;33.80;;
76795;SDS011;65745;50.278;18.192;2023-11-19T03:37:03;65.10;;;35.40;;
76795;SDS011;65745;50.278;18.192;2023-11-19T03:39:35;62.40;;;37.10;;
76795;SDS011;65745;50.278;18.192;2023-11-19T03:42:07;79.70;;;40.70;;
76795;SDS011;65745;50.278;18.192;2023-11-19T03:44:41;63.10;;;35.60;;
76795;SDS011;65745;50.278;18.192;2023-11-19T03:47:13;64.70;;;34.90;;
76795;SDS011;65745;50.278;18.192;2023-11-19T03:49:48;73.30;;;38.30;;
76795;SDS011;65745;50.278;18.192;2023-11-19T03:52:20;71.80;;;39.80;;
76795;SDS011;65745;50.278;18.192;2023-11-19T03:54:52;89.00;;;48.40;;
76795;SDS011;65745;50.278;18.192;2023-11-19T03:57:26;85.80;;;46.50;;
76795;SDS011;65745;50.278;18.192;2023-11-19T03:59:58;77.60;;;41.50;;
76795;SDS011;65745;50.278;18.192;2023-11-19T04:02:41;69.80;;;39.90;;
76795;SDS011;65745;50.278;18.192;2023-11-19T04:05:13;73.60;;;40.50;;
76795;SDS011;65745;50.278;18.192;2023-11-19T04:07:45;72.50;;;40.70;;
76795;SDS011;65745;50.278;18.192;2023-11-19T04:10:17;65.70;;;39.30;;
76795;SDS011;65745;50.278;18.192;2023-11-19T04:12:49;64.40;;;39.00;;
76795;SDS011;65745;50.278;18.192;2023-11-19T04:15:21;57.10;;;33.90;;
76795;SDS011;65745;50.278;18.192;2023-11-19T04:17:54;62.40;;;35.40;;
76795;SDS011;65745;50.278;18.192;2023-11-19T04:20:26;62.40;;;33.40;;
76795;SDS011;65745;50.278;18.192;2023-11-19T04:22:58;66.60;;;34.80;;
76795;SDS011;65745;50.278;18.192;2023-11-19T04:25:30;62.00;;;35.70;;
76795;SDS011;65745;50.278;18.192;2023-11-19T04:28:02;62.80;;;36.80;;
76795;SDS011;65745;50.278;18.192;2023-11-19T04:30:35;66.10;;;34.70;;
76795;SDS011;65745;50.278;18.192;2023-11-19T04:33:08;66.60;;;35.80;;
76795;SDS011;65745;50.278;18.192;2023-11-19T04:35:40;59.10;;;33.00;;
76795;SDS011;65745;50.278;18.192;2023-11-19T04:38:12;55.60;;;32.00;;
76795;SDS011;65745;50.278;18.192;2023-11-19T04:40:44;61.50;;;36.00;;
76795;SDS011;65745;50.278;18.192;2023-11-19T04:43:16;60.30;;;33.70;;
76795;SDS011;65745;50.278;18.192;2023-11-19T04:45:49;61.90;;;33.90;;
76795;SDS011;65745;50.278;18.192;2023-11-19T04:48:22;61.00;;;33.40;;
76795;SDS011;65745;50.278;18.192;2023-11-19T04:50:54;59.30;;;32.60;;
76795;SDS011;65745;50.278;18.192;2023-11-19T04:53:25;69.60;;;36.80;;
76795;SDS011;65745;50.278;18.192;2023-11-19T04:55:57;69.20;;;37.30;;
76795;SDS011;65745;50.278;18.192;2023-11-19T04:58:30;63.80;;;35.80;;
76795;SDS011;65745;50.278;18.192;2023-11-19T05:01:03;66.30;;;36.60;;
76795;SDS011;65745;50.278;18.192;2023-11-19T05:03:35;62.40;;;36.10;;
76795;SDS011;65745;50.278;18.192;2023-11-19T05:06:08;58.80;;;34.60;;
76795;SDS011;65745;50.278;18.192;2023-11-19T05:08:40;64.20;;;33.50;;
76795;SDS011;65745;50.278;18.192;2023-11-19T05:11:12;60.00;;;34.10;;
76795;SDS011;65745;50.278;18.192;2023-11-19T05:13:47;60.40;;;33.80;;
76795;SDS011;65745;50.278;18.192;2023-11-19T05:16:19;61.00;;;33.10;;
76795;SDS011;65745;50.278;18.192;2023-11-19T05:18:51;56.90;;;33.30;;
76795;SDS011;65745;50.278;18.192;2023-11-19T05:21:23;56.00;;;32.70;;
76795;SDS011;65745;50.278;18.192;2023-11-19T05:23:58;55.70;;;35.30;;
76795;SDS011;65745;50.278;18.192;2023-11-19T05:26:30;50.40;;;28.40;;
76795;SDS011;65745;50.278;18.192;2023-11-19T05:29:02;54.90;;;29.90;;
76795;SDS011;65745;50.278;18.192;2023-11-19T05:31:34;54.40;;;31.20;;
76795;SDS011;65745;50.278;18.192;2023-11-19T05:34:07;51.70;;;28.90;;
76795;SDS011;65745;50.278;18.192;2023-11-19T05:36:41;48.70;;;30.60;;
76795;SDS011;65745;50.278;18.192;2023-11-19T05:39:13;53.60;;;31.10;;
76795;SDS011;65745;50.278;18.192;2023-11-19T05:41:48;56.90;;;31.50;;
76795;SDS011;65745;50.278;18.192;2023-11-19T05:44:20;52.40;;;29.00;;
76795;SDS011;65745;50.278;18.192;2023-11-19T05:46:52;55.90;;;32.60;;
76795;SDS011;65745;50.278;18.192;2023-11-19T05:49:24;67.30;;;38.90;;
76795;SDS011;65745;50.278;18.192;2023-11-19T05:51:56;61.20;;;37.00;;
76795;SDS011;65745;50.278;18.192;2023-11-19T05:54:30;58.60;;;34.60;;
76795;SDS011;65745;50.278;18.192;2023-11-19T05:57:07;48.60;;;30.80;;
76795;SDS011;65745;50.278;18.192;2023-11-19T05:59:39;50.50;;;30.90;;
76795;SDS011;65745;50.278;18.192;2023-11-19T06:02:11;47.90;;;27.60;;
76795;SDS011;65745;50.278;18.192;2023-11-19T06:04:43;46.30;;;27.40;;
76795;SDS011;65745;50.278;18.192;2023-11-19T06:07:17;45.00;;;28.10;;
76795;SDS011;65745;50.278;18.192;2023-11-19T06:09:49;48.80;;;26.10;;
76795;SDS011;65745;50.278;18.192;2023-11-19T06:12:21;43.80;;;24.40;;
76795;SDS011;65745;50.278;18.192;2023-11-19T06:14:53;38.80;;;23.70;;
76795;SDS011;65745;50.278;18.192;2023-11-19T06:17:25;41.90;;;23.60;;
76795;SDS011;65745;50.278;18.192;2023-11-19T06:19:58;37.30;;;21.90;;
76795;SDS011;65745;50.278;18.192;2023-11-19T06:22:30;44.70;;;25.20;;
76795;SDS011;65745;50.278;18.192;2023-11-19T06:25:02;42.50;;;23.20;;
76795;SDS011;65745;50.278;18.192;2023-11-19T06:27:37;51.00;;;26.40;;
76795;SDS011;65745;50.278;18.192;2023-11-19T06:30:09;53.60;;;26.30;;
76795;SDS011;65745;50.278;18.192;2023-11-19T06:32:43;32.70;;;20.20;;
76795;SDS011;65745;50.278;18.192;2023-11-19T06:35:15;33.40;;;21.80;;
76795;SDS011;65745;50.278;18.192;2023-11-19T06:37:47;34.30;;;19.90;;
76795;SDS011;65745;50.278;18.192;2023-11-19T06:40:19;35.40;;;21.90;;
76795;SDS011;65745;50.278;18.192;2023-11-19T06:42:51;34.60;;;20.30;;
76795;SDS011;65745;50.278;18.192;2023-11-19T06:45:24;32.50;;;19.20;;
76795;SDS011;65745;50.278;18.192;2023-11-19T06:47:56;34.30;;;17.80;;
76795;SDS011;65745;50.278;18.192;2023-11-19T06:50:32;41.70;;;23.50;;
76795;SDS011;65745;50.278;18.192;2023-11-19T06:53:04;50.80;;;30.80;;
76795;SDS011;65745;50.278;18.192;2023-11-19T06:55:39;39.90;;;22.50;;
76795;SDS011;65745;50.278;18.192;2023-11-19T06:58:11;46.50;;;25.10;;
76795;SDS011;65745;50.278;18.192;2023-11-19T07:00:43;39.90;;;23.50;;
76795;SDS011;65745;50.278;18.192;2023-11-19T07:03:18;31.50;;;19.20;;
76795;SDS011;65745;50.278;18.192;2023-11-19T07:05:51;29.00;;;17.20;;
76795;SDS011;65745;50.278;18.192;2023-11-19T07:08:26;30.30;;;19.10;;
76795;SDS011;65745;50.278;18.192;2023-11-19T07:11:00;30.10;;;16.30;;
76795;SDS011;65745;50.278;18.192;2023-11-19T07:13:32;31.80;;;19.00;;
76795;SDS011;65745;50.278;18.192;2023-11-19T07:16:06;30.80;;;17.10;;
76795;SDS011;65745;50.278;18.192;2023-11-19T07:18:40;37.40;;;21.30;;
76795;SDS011;65745;50.278;18.192;2023-11-19T07:21:13;24.90;;;15.30;;
76795;SDS011;65745;50.278;18.192;2023-11-19T07:23:45;28.30;;;17.50;;
76795;SDS011;65745;50.278;18.192;2023-11-19T07:26:19;29.40;;;18.30;;
76795;SDS011;65745;50.278;18.192;2023-11-19T07:28:51;27.00;;;16.30;;
76795;SDS011;65745;50.278;18.192;2023-11-19T07:31:24;28.90;;;15.50;;
76795;SDS011;65745;50.278;18.192;2023-11-19T07:33:56;25.50;;;14.80;;
76795;SDS011;65745;50.278;18.192;2023-11-19T07:36:28;26.50;;;15.90;;
76795;SDS011;65745;50.278;18.192;2023-11-19T07:39:01;26.80;;;15.00;;
76795;SDS011;65745;50.278;18.192;2023-11-19T07:41:34;22.50;;;14.40;;
76795;SDS011;65745;50.278;18.192;2023-11-19T07:44:07;24.60;;;16.50;;
76795;SDS011;65745;50.278;18.192;2023-11-19T07:46:40;21.90;;;13.50;;
76795;SDS011;65745;50.278;18.192;2023-11-19T07:49:14;22.10;;;14.00;;
76795;SDS011;65745;50.278;18.192;2023-11-19T07:51:48;22.80;;;14.10;;
76795;SDS011;65745;50.278;18.192;2023-11-19T07:54:21;25.10;;;14.80;;
76795;SDS011;65745;50.278;18.192;2023-11-19T07:56:53;20.00;;;13.20;;
76795;SDS011;65745;50.278;18.192;2023-11-19T07:59:25;25.10;;;14.10;;
76795;SDS011;65745;50.278;18.192;2023-11-19T08:01:57;32.90;;;17.60;;
76795;SDS011;65745;50.278;18.192;2023-11-19T08:04:30;20.70;;;13.20;;
76795;SDS011;65745;50.278;18.192;2023-11-19T08:07:03;22.70;;;15.00;;
76795;SDS011;65745;50.278;18.192;2023-11-19T08:09:35;22.80;;;15.20;;
76795;SDS011;65745;50.278;18.192;2023-11-19T08:12:07;34.10;;;15.30;;
76795;SDS011;65745;50.278;18.192;2023-11-19T08:14:40;42.20;;;18.20;;
76795;SDS011;65745;50.278;18.192;2023-11-19T08:17:13;43.00;;;18.00;;
76795;SDS011;65745;50.278;18.192;2023-11-19T08:19:47;39.70;;;19.60;;
76795;SDS011;65745;50.278;18.192;2023-11-19T08:22:19;63.40;;;25.70;;
76795;SDS011;65745;50.278;18.192;2023-11-19T08:24:51;37.20;;;17.10;;
76795;SDS011;65745;50.278;18.192;2023-11-19T08:27:23;20.80;;;12.90;;
76795;SDS011;65745;50.278;18.192;2023-11-19T08:29:56;19.20;;;12.10;;
76795;SDS011;65745;50.278;18.192;2023-11-19T08:32:28;49.70;;;20.80;;
76795;SDS011;65745;50.278;18.192;2023-11-19T08:35:01;35.50;;;15.90;;
76795;SDS011;65745;50.278;18.192;2023-11-19T08:37:35;27.60;;;15.60;;
76795;SDS011;65745;50.278;18.192;2023-11-19T08:40:08;28.00;;;13.60;;
76795;SDS011;65745;50.278;18.192;2023-11-19T08:42:41;19.70;;;12.70;;
76795;SDS011;65745;50.278;18.192;2023-11-19T08:45:14;17.10;;;10.90;;
76795;SDS011;65745;50.278;18.192;2023-11-19T08:47:46;15.90;;;10.70;;
76795;SDS011;65745;50.278;18.192;2023-11-19T08:50:18;21.50;;;13.60;;
76795;SDS011;65745;50.278;18.192;2023-11-19T08:52:50;20.60;;;12.30;;
76795;SDS011;65745;50.278;18.192;2023-11-19T08:55:22;16.20;;;11.70;;
76795;SDS011;65745;50.278;18.192;2023-11-19T08:57:55;17.00;;;11.20;;
76795;SDS011;65745;50.278;18.192;2023-11-19T09:00:28;17.50;;;10.50;;
76795;SDS011;65745;50.278;18.192;2023-11-19T09:03:01;20.90;;;11.50;;
76795;SDS011;65745;50.278;18.192;2023-11-19T09:05:34;15.40;;;9.30;;
76795;SDS011;65745;50.278;18.192;2023-11-19T09:08:07;19.50;;;10.50;;
76795;SDS011;65745;50.278;18.192;2023-11-19T09:10:41;14.30;;;8.30;;
76795;SDS011;65745;50.278;18.192;2023-11-19T09:13:13;16.00;;;10.00;;
76795;SDS011;65745;50.278;18.192;2023-11-19T09:15:45;13.70;;;8.80;;
76795;SDS011;65745;50.278;18.192;2023-11-19T09:18:17;12.10;;;8.50;;
76795;SDS011;65745;50.278;18.192;2023-11-19T09:20:50;11.50;;;7.60;;
76795;SDS011;65745;50.278;18.192;2023-11-19T09:23:22;9.70;;;6.70;;
76795;SDS011;65745;50.278;18.192;2023-11-19T09:25:57;10.30;;;7.50;;
76795;SDS011;65745;50.278;18.192;2023-11-19T09:28:29;7.50;;;5.50;;
76795;SDS011;65745;50.278;18.192;2023-11-19T09:31:01;9.50;;;6.70;;
76795;SDS011;65745;50.278;18.192;2023-11-19T09:33:33;11.50;;;7.80;;
76795;SDS011;65745;50.278;18.192;2023-11-19T09:36:06;10.80;;;7.10;;
76795;SDS011;65745;50.278;18.192;2023-11-19T09:38:39;9.20;;;6.00;;
76795;SDS011;65745;50.278;18.192;2023-11-19T09:41:11;10.30;;;7.40;;
76795;SDS011;65745;50.278;18.192;2023-11-19T09:43:44;9.50;;;7.00;;
76795;SDS011;65745;50.278;18.192;2023-11-19T09:46:17;9.40;;;7.50;;
76795;SDS011;65745;50.278;18.192;2023-11-19T09:48:50;12.50;;;7.40;;
76795;SDS011;65745;50.278;18.192;2023-11-19T09:51:25;11.20;;;7.90;;
76795;SDS011;65745;50.278;18.192;2023-11-19T09:53:58;10.40;;;7.60;;
76795;SDS011;65745;50.278;18.192;2023-11-19T09:56:30;19.60;;;11.10;;
76795;SDS011;65745;50.278;18.192;2023-11-19T09:59:03;10.20;;;7.90;;
76795;SDS011;65745;50.278;18.192;2023-11-19T10:01:35;10.80;;;7.60;;
76795;SDS011;65745;50.278;18.192;2023-11-19T10:04:08;8.40;;;5.90;;
76795;SDS011;65745;50.278;18.192;2023-11-19T10:06:43;8.20;;;7.20;;
76795;SDS011;65745;50.278;18.192;2023-11-19T10:09:16;10.00;;;6.50;;
76795;SDS011;65745;50.278;18.192;2023-11-19T10:11:48;9.70;;;7.30;;
76795;SDS011;65745;50.278;18.192;2023-11-19T10:14:22;9.70;;;6.90;;
76795;SDS011;65745;50.278;18.192;2023-11-19T10:16:55;10.80;;;6.70;;
76795;SDS011;65745;50.278;18.192;2023-11-19T10:19:28;11.80;;;8.50;;
76795;SDS011;65745;50.278;18.192;2023-11-19T10:22:04;14.20;;;9.60;;
76795;SDS011;65745;50.278;18.192;2023-11-19T10:24:36;17.70;;;11.00;;
76795;SDS011;65745;50.278;18.192;2023-11-19T10:27:17;38.70;;;18.60;;
76795;SDS011;65745;50.278;18.192;2023-11-19T10:29:49;122.30;;;55.70;;
76795;SDS011;65745;50.278;18.192;2023-11-19T10:32:22;100.60;;;50.00;;
76795;SDS011;65745;50.278;18.192;2023-11-19T10:35:05;62.60;;;32.40;;
76795;SDS011;65745;50.278;18.192;2023-11-19T10:37:41;70.80;;;36.50;;
76795;SDS011;65745;50.278;18.192;2023-11-19T10:40:13;34.00;;;19.40;;
76795;SDS011;65745;50.278;18.192;2023-11-19T10:42:47;24.90;;;14.80;;
76795;SDS011;65745;50.278;18.192;2023-11-19T10:45:32;35.60;;;22.90;;
76795;SDS011;65745;50.278;18.192;2023-11-19T10:48:05;25.30;;;18.40;;
76795;SDS011;65745;50.278;18.192;2023-11-19T10:50:38;22.80;;;13.00;;
76795;SDS011;65745;50.278;18.192;2023-11-19T10:53:11;27.40;;;13.90;;
76795;SDS011;65745;50.278;18.192;2023-11-19T10:55:46;16.20;;;9.70;;
76795;SDS011;65745;50.278;18.192;2023-11-19T10:58:19;110.90;;;47.10;;
76795;SDS011;65745;50.278;18.192;2023-11-19T11:00:52;46.90;;;22.60;;
76795;SDS011;65745;50.278;18.192;2023-11-19T11:03:29;34.50;;;19.50;;
76795;SDS011;65745;50.278;18.192;2023-11-19T11:06:10;17.70;;;12.50;;
76795;SDS011;65745;50.278;18.192;2023-11-19T11:08:43;17.90;;;12.10;;
76795;SDS011;65745;50.278;18.192;2023-11-19T11:11:17;13.70;;;7.80;;
76795;SDS011;65745;50.278;18.192;2023-11-19T11:13:50;12.20;;;8.80;;
76795;SDS011;65745;50.278;18.192;2023-11-19T11:16:25;16.30;;;11.40;;
76795;SDS011;65745;50.278;18.192;2023-11-19T11:19:01;18.70;;;10.60;;
76795;SDS011;65745;50.278;18.192;2023-11-19T11:21:34;16.50;;;10.60;;
76795;SDS011;65745;50.278;18.192;2023-11-19T11:24:16;15.50;;;10.10;;
76795;SDS011;65745;50.278;18.192;2023-11-19T11:27:13;12.80;;;7.70;;
76795;SDS011;65745;50.278;18.192;2023-11-19T11:30:06;15.50;;;11.30;;
76795;SDS011;65745;50.278;18.192;2023-11-19T11:32:51;12.00;;;7.60;;
76795;SDS011;65745;50.278;18.192;2023-11-19T11:35:37;15.60;;;9.60;;
76795;SDS011;65745;50.278;18.192;2023-11-19T11:38:21;12.10;;;8.50;;
76795;SDS011;65745;50.278;18.192;2023-11-19T11:43:50;12.10;;;8.60;;
76795;SDS011;65745;50.278;18.192;2023-11-19T11:49:29;12.70;;;8.00;;
76795;SDS011;65745;50.278;18.192;2023-11-19T11:52:04;12.70;;;8.10;;
76795;SDS011;65745;50.278;18.192;2023-11-19T11:54:37;11.10;;;6.50;;
76795;SDS011;65745;50.278;18.192;2023-11-19T11:57:11;10.20;;;6.40;;
76795;SDS011;65745;50.278;18.192;2023-11-19T11:59:49;7.70;;;6.60;;
76795;SDS011;65745;50.278;18.192;2023-11-19T12:02:22;5.70;;;5.10;;
76795;SDS011;65745;50.278;18.192;2023-11-19T12:04:55;6.50;;;4.50;;
76795;SDS011;65745;50.278;18.192;2023-11-19T12:07:29;6.20;;;4.80;;
76795;SDS011;65745;50.278;18.192;2023-11-19T12:10:07;6.60;;;5.20;;
76795;SDS011;65745;50.278;18.192;2023-11-19T12:12:41;6.70;;;5.50;;
76795;SDS011;65745;50.278;18.192;2023-11-19T12:15:13;5.40;;;4.80;;
76795;SDS011;65745;50.278;18.192;2023-11-19T12:17:48;6.10;;;4.30;;
76795;SDS011;65745;50.278;18.192;2023-11-19T12:20:21;6.60;;;4.40;;
76795;SDS011;65745;50.278;18.192;2023-11-19T12:22:57;6.80;;;4.40;;
76795;SDS011;65745;50.278;18.192;2023-11-19T12:25:37;5.30;;;4.40;;
76795;SDS011;65745;50.278;18.192;2023-11-19T12:28:12;5.50;;;4.70;;
76795;SDS011;65745;50.278;18.192;2023-11-19T12:30:46;6.30;;;4.90;;
76795;SDS011;65745;50.278;18.192;2023-11-19T12:33:18;5.10;;;4.20;;
76795;SDS011;65745;50.278;18.192;2023-11-19T12:35:51;5.80;;;4.90;;
76795;SDS011;65745;50.278;18.192;2023-11-19T12:38:23;5.30;;;3.80;;
76795;SDS011;65745;50.278;18.192;2023-11-19T12:41:05;6.80;;;4.60;;
76795;SDS011;65745;50.278;18.192;2023-11-19T12:43:40;5.40;;;4.60;;
76795;SDS011;65745;50.278;18.192;2023-11-19T12:46:18;6.00;;;4.30;;
76795;SDS011;65745;50.278;18.192;2023-11-19T12:48:52;6.00;;;4.30;;
76795;SDS011;65745;50.278;18.192;2023-11-19T12:51:24;5.30;;;3.80;;
76795;SDS011;65745;50.278;18.192;2023-11-19T12:54:03;8.80;;;4.70;;
76795;SDS011;65745;50.278;18.192;2023-11-19T12:56:35;5.50;;;4.00;;
76795;SDS011;65745;50.278;18.192;2023-11-19T12:59:12;7.60;;;5.10;;
76795;SDS011;65745;50.278;18.192;2023-11-19T13:01:54;4.90;;;4.00;;
76795;SDS011;65745;50.278;18.192;2023-11-19T13:04:29;5.00;;;3.80;;
76795;SDS011;65745;50.278;18.192;2023-11-19T13:07:01;5.80;;;4.80;;
76795;SDS011;65745;50.278;18.192;2023-11-19T13:09:35;6.70;;;4.30;;
76795;SDS011;65745;50.278;18.192;2023-11-19T13:12:13;7.30;;;5.30;;
76795;SDS011;65745;50.278;18.192;2023-11-19T13:14:46;8.10;;;4.90;;
76795;SDS011;65745;50.278;18.192;2023-11-19T13:17:19;6.10;;;4.60;;
76795;SDS011;65745;50.278;18.192;2023-11-19T13:19:51;6.70;;;4.40;;
76795;SDS011;65745;50.278;18.192;2023-11-19T13:22:25;6.80;;;4.30;;
76795;SDS011;65745;50.278;18.192;2023-11-19T13:24:57;5.80;;;4.10;;
76795;SDS011;65745;50.278;18.192;2023-11-19T13:27:30;7.40;;;4.20;;
76795;SDS011;65745;50.278;18.192;2023-11-19T13:30:06;5.70;;;3.90;;
76795;SDS011;65745;50.278;18.192;2023-11-19T13:32:55;5.90;;;4.10;;
76795;SDS011;65745;50.278;18.192;2023-11-19T13:35:28;5.60;;;3.90;;
76795;SDS011;65745;50.278;18.192;2023-11-19T13:38:00;5.90;;;3.90;;
76795;SDS011;65745;50.278;18.192;2023-11-19T13:40:32;6.20;;;4.30;;
76795;SDS011;65745;50.278;18.192;2023-11-19T13:43:04;4.50;;;3.40;;
76795;SDS011;65745;50.278;18.192;2023-11-19T13:45:37;4.90;;;3.80;;
76795;SDS011;65745;50.278;18.192;2023-11-19T13:48:09;5.50;;;3.80;;
76795;SDS011;65745;50.278;18.192;2023-11-19T13:50:42;7.30;;;3.60;;
76795;SDS011;65745;50.278;18.192;2023-11-19T13:53:14;5.00;;;3.80;;
76795;SDS011;65745;50.278;18.192;2023-11-19T13:55:46;5.80;;;3.50;;
76795;SDS011;65745;50.278;18.192;2023-11-19T13:58:18;6.50;;;4.10;;
76795;SDS011;65745;50.278;18.192;2023-11-19T14:00:50;7.10;;;3.70;;
76795;SDS011;65745;50.278;18.192;2023-11-19T14:03:23;4.80;;;3.40;;
76795;SDS011;65745;50.278;18.192;2023-11-19T14:05:55;5.00;;;4.00;;
76795;SDS011;65745;50.278;18.192;2023-11-19T14:08:27;3.80;;;3.00;;
76795;SDS011;65745;50.278;18.192;2023-11-19T14:11:00;4.30;;;3.20;;
76795;SDS011;65745;50.278;18.192;2023-11-19T14:13:32;4.80;;;3.00;;
76795;SDS011;65745;50.278;18.192;2023-11-19T14:16:04;3.90;;;3.50;;
76795;SDS011;65745;50.278;18.192;2023-11-19T14:18:38;4.40;;;3.20;;
76795;SDS011;65745;50.278;18.192;2023-11-19T14:21:10;5.30;;;3.20;;
76795;SDS011;65745;50.278;18.192;2023-11-19T14:23:43;4.90;;;3.20;;
76795;SDS011;65745;50.278;18.192;2023-11-19T14:26:15;3.90;;;2.90;;
76795;SDS011;65745;50.278;18.192;2023-11-19T14:28:47;4.30;;;3.00;;
76795;SDS011;65745;50.278;18.192;2023-11-19T14:31:22;5.30;;;3.80;;
76795;SDS011;65745;50.278;18.192;2023-11-19T14:33:57;4.90;;;4.40;;
76795;SDS011;65745;50.278;18.192;2023-11-19T14:36:30;5.10;;;4.20;;
76795;SDS011;65745;50.278;18.192;2023-11-19T14:39:04;6.70;;;3.80;;
76795;SDS011;65745;50.278;18.192;2023-11-19T14:41:36;4.60;;;2.60;;
76795;SDS011;65745;50.278;18.192;2023-11-19T14:44:08;4.80;;;3.00;;
76795;SDS011;65745;50.278;18.192;2023-11-19T14:46:40;4.70;;;3.30;;
76795;SDS011;65745;50.278;18.192;2023-11-19T14:49:13;3.80;;;3.00;;
76795;SDS011;65745;50.278;18.192;2023-11-19T14:51:45;4.10;;;2.70;;
76795;SDS011;65745;50.278;18.192;2023-11-19T14:54:17;6.80;;;3.80;;
76795;SDS011;65745;50.278;18.192;2023-11-19T14:57:08;4.10;;;3.00;;
76795;SDS011;65745;50.278;18.192;2023-11-19T14:59:40;5.50;;;3.10;;